createdAt,value
2023-04-02T00:02:27.728Z,0.60
2023-04-02T00:05:50.039Z,0.60
2023-04-02T00:08:27.813Z,0.60
2023-04-02T00:10:57.354Z,0.60
2023-04-02T00:13:31.192Z,0.60
2023-04-02T00:16:00.632Z,0.53
2023-04-02T00:18:29.035Z,0.60
2023-04-02T00:21:06.994Z,0.60
2023-04-02T00:23:37.499Z,0.50
2023-04-02T00:26:08.015Z,0.70
2023-04-02T00:28:36.444Z,0.50
2023-04-02T00:31:04.355Z,0.60
2023-04-02T00:33:33.123Z,0.60
2023-04-02T00:36:08.494Z,0.70
2023-04-02T00:38:36.793Z,0.50
2023-04-02T00:41:07.187Z,0.60
2023-04-02T00:43:38.353Z,0.60
2023-04-02T00:46:14.198Z,0.70
2023-04-02T00:48:50.250Z,0.70
2023-04-02T00:51:25.633Z,0.70
2023-04-02T00:53:57.324Z,0.60
2023-04-02T00:56:29.236Z,0.53
2023-04-02T00:58:58.365Z,0.53
2023-04-02T01:01:28.329Z,0.50
2023-04-02T01:04:01.324Z,0.60
2023-04-02T01:06:34.198Z,0.70
2023-04-02T01:09:20.514Z,0.50
2023-04-02T01:12:07.752Z,0.63
2023-04-02T01:14:46.513Z,0.50
2023-04-02T01:17:26.571Z,0.50
2023-04-02T01:20:22.863Z,0.53
2023-04-02T01:22:58.070Z,0.60
2023-04-02T01:25:29.483Z,0.60
2023-04-02T01:28:05.595Z,0.57
2023-04-02T01:30:36.933Z,0.60
2023-04-02T01:33:06.234Z,0.60
2023-04-02T01:35:43.100Z,0.60
2023-04-02T01:38:15.304Z,0.50
2023-04-02T01:40:48.299Z,0.63
2023-04-02T01:43:24.136Z,0.60
2023-04-02T01:45:53.925Z,0.60
2023-04-02T01:48:27.382Z,0.57
2023-04-02T01:50:58.433Z,0.50
2023-04-02T01:53:29.389Z,0.50
2023-04-02T01:55:59.421Z,0.60
2023-04-02T01:58:32.163Z,0.60
2023-04-02T02:01:05.847Z,0.60
2023-04-02T02:03:34.749Z,0.60
2023-04-02T02:06:03.614Z,0.60
2023-04-02T02:08:35.723Z,0.50
2023-04-02T02:11:04.637Z,0.60
2023-04-02T02:13:33.561Z,0.60
2023-04-02T02:16:05.163Z,0.70
2023-04-02T02:18:33.924Z,0.60
2023-04-02T02:21:04.726Z,0.50
2023-04-02T02:23:32.813Z,0.60
2023-04-02T02:26:00.940Z,0.60
2023-04-02T02:28:32.812Z,0.50
2023-04-02T02:31:05.613Z,0.60
2023-04-02T02:33:38.553Z,0.60
2023-04-02T02:36:09.574Z,0.50
2023-04-02T02:38:54.735Z,0.60
2023-04-02T02:41:27.992Z,0.53
2023-04-02T02:44:03.205Z,0.53
2023-04-02T02:46:33.562Z,0.60
2023-04-02T02:49:05.305Z,0.50
2023-04-02T02:51:41.932Z,0.50
2023-04-02T02:54:10.119Z,0.60
2023-04-02T02:56:42.728Z,0.60
2023-04-02T02:59:12.379Z,0.53
2023-04-02T03:01:42.334Z,0.40
2023-04-02T03:04:10.336Z,0.50
2023-04-02T03:06:40.143Z,0.50
2023-04-02T03:09:18.541Z,0.60
2023-04-02T03:11:53.734Z,0.50
2023-04-02T03:14:27.502Z,0.60
2023-04-02T03:17:03.956Z,0.60
2023-04-02T03:19:40.788Z,0.57
2023-04-02T03:22:15.895Z,0.50
2023-04-02T03:24:53.392Z,0.60
2023-04-02T03:27:24.726Z,0.60
2023-04-02T03:30:03.882Z,0.60
2023-04-02T03:32:36.510Z,0.50
2023-04-02T03:35:11.500Z,0.63
2023-04-02T03:37:43.417Z,0.60
2023-04-02T03:40:18.245Z,0.50
2023-04-02T03:42:50.796Z,0.67
2023-04-02T03:45:23.595Z,0.50
2023-04-02T03:47:57.403Z,0.60
2023-04-02T03:50:31.645Z,0.60
2023-04-02T03:53:00.127Z,0.50
2023-04-02T03:55:31.475Z,0.50
2023-04-02T03:58:03.581Z,0.50
2023-04-02T04:00:37.446Z,0.50
2023-04-02T04:03:14.205Z,0.60
2023-04-02T04:05:49.532Z,0.60
2023-04-02T04:08:19.998Z,0.50
2023-04-02T04:10:53.157Z,0.60
2023-04-02T04:13:28.983Z,0.50
2023-04-02T04:16:03.696Z,0.60
2023-04-02T04:18:41.051Z,0.60
2023-04-02T04:21:17.498Z,0.50
2023-04-02T04:23:51.861Z,0.50
2023-04-02T04:26:24.550Z,0.60
2023-04-02T04:28:59.905Z,0.50
2023-04-02T04:31:34.608Z,0.60
2023-04-02T04:34:09.176Z,0.63
2023-04-02T04:36:53.905Z,0.60
2023-04-02T04:39:29.690Z,0.50
2023-04-02T04:42:01.304Z,0.60
2023-04-02T04:44:44.477Z,0.70
2023-04-02T04:47:18.495Z,0.60
2023-04-02T04:49:52.835Z,0.50
2023-04-02T04:52:23.109Z,0.53
2023-04-02T04:54:51.202Z,0.63
2023-04-02T04:57:30.412Z,0.60
2023-04-02T05:00:06.420Z,0.60
2023-04-02T05:02:39.514Z,0.60
2023-04-02T05:05:19.542Z,0.60
2023-04-02T05:07:52.325Z,0.60
2023-04-02T05:10:28.423Z,0.53
2023-04-02T05:13:00.495Z,0.60
2023-04-02T05:15:33.325Z,0.50
2023-04-02T05:18:16.211Z,0.60
2023-04-02T05:20:49.759Z,0.70
2023-04-02T05:23:23.453Z,0.60
2023-04-02T05:25:54.868Z,0.50
2023-04-02T05:28:28.707Z,0.70
2023-04-02T05:31:03.083Z,0.50
2023-04-02T05:33:33.637Z,0.60
2023-04-02T05:36:06.074Z,0.50
2023-04-02T05:38:36.135Z,0.60
2023-04-02T05:41:08.171Z,0.60
2023-04-02T05:43:39.864Z,0.50
2023-04-02T05:46:17.148Z,0.60
2023-04-02T05:48:50.276Z,0.60
2023-04-02T05:51:23.216Z,0.60
2023-04-02T05:53:54.936Z,0.60
2023-04-02T05:56:27.775Z,0.50
2023-04-02T05:58:59.277Z,0.60
2023-04-02T06:01:37.277Z,0.70
2023-04-02T06:04:14.136Z,0.50
2023-04-02T06:06:57.933Z,0.50
2023-04-02T06:09:32.941Z,0.63
2023-04-02T06:12:13.194Z,0.50
2023-04-02T06:14:41.216Z,0.50
2023-04-02T06:17:12.665Z,0.53
2023-04-02T06:19:40.946Z,0.50
2023-04-02T06:22:19.604Z,0.60
2023-04-02T06:24:52.134Z,0.70
2023-04-02T06:27:22.771Z,0.60
2023-04-02T06:29:55.560Z,0.60
2023-04-02T06:32:25.586Z,0.50
2023-04-02T06:34:53.999Z,0.60
2023-04-02T06:37:28.875Z,0.60
2023-04-02T06:39:58.472Z,0.60
2023-04-02T06:42:29.423Z,0.60
2023-04-02T06:44:57.426Z,0.60
2023-04-02T06:47:33.093Z,0.60
2023-04-02T06:50:08.965Z,0.57
2023-04-02T06:52:44.425Z,0.70
2023-04-02T06:55:31.397Z,0.50
2023-04-02T06:57:59.418Z,0.57
2023-04-02T07:00:32.776Z,0.60
2023-04-02T07:03:02.860Z,0.60
2023-04-02T07:05:30.842Z,0.60
2023-04-02T07:08:00.336Z,0.60
2023-04-02T07:10:28.184Z,0.50
2023-04-02T07:12:56.025Z,0.50
2023-04-02T07:15:25.521Z,0.60
2023-04-02T07:17:54.810Z,0.60
2023-04-02T07:20:28.884Z,0.50
2023-04-02T07:22:57.180Z,0.60
2023-04-02T07:25:27.814Z,0.60
2023-04-02T07:27:56.421Z,0.50
2023-04-02T07:30:24.398Z,0.60
2023-04-02T07:32:52.365Z,0.50
2023-04-02T07:35:20.275Z,0.63
2023-04-02T07:37:48.157Z,0.53
2023-04-02T07:40:19.112Z,0.60
2023-04-02T07:42:48.318Z,0.50
2023-04-02T07:45:16.979Z,0.50
2023-04-02T07:47:44.998Z,0.60
2023-04-02T07:50:13.454Z,0.83
2023-04-02T07:52:42.157Z,0.50
2023-04-02T07:55:12.466Z,0.50
2023-04-02T07:57:43.125Z,0.60
2023-04-02T08:00:14.961Z,0.60
2023-04-02T08:02:43.080Z,0.53
2023-04-02T08:05:11.978Z,0.63
2023-04-02T08:07:40.161Z,0.60
2023-04-02T08:10:09.787Z,0.50
2023-04-02T08:12:37.772Z,0.60
2023-04-02T08:15:07.370Z,0.70
2023-04-02T08:17:36.580Z,0.50
2023-04-02T08:20:06.652Z,0.60
2023-04-02T08:22:34.577Z,0.60
2023-04-02T08:25:02.446Z,0.60
2023-04-02T08:27:31.047Z,0.63
2023-04-02T08:29:59.055Z,0.60
2023-04-02T08:32:28.998Z,0.50
2023-04-02T08:34:58.325Z,0.53
2023-04-02T08:37:26.155Z,0.60
2023-04-02T08:39:53.963Z,0.60
2023-04-02T08:42:30.460Z,0.60
2023-04-02T08:45:24.132Z,0.67
2023-04-02T08:47:55.911Z,0.60
2023-04-02T08:50:31.484Z,0.50
2023-04-02T08:53:00.462Z,0.40
2023-04-02T08:55:36.198Z,0.60
2023-04-02T08:58:09.802Z,0.50
2023-04-02T09:00:40.380Z,0.60
2023-04-02T09:03:14.060Z,0.50
2023-04-02T09:05:45.084Z,0.60
2023-04-02T09:08:19.017Z,0.60
2023-04-02T09:10:52.368Z,0.60
2023-04-02T09:13:25.301Z,0.70
2023-04-02T09:15:58.759Z,0.57
2023-04-02T09:18:31.278Z,0.60
2023-04-02T09:21:04.868Z,0.70
2023-04-02T09:23:33.142Z,0.50
2023-04-02T09:26:04.616Z,0.60
2023-04-02T09:28:32.930Z,0.60
2023-04-02T09:31:12.565Z,0.63
2023-04-02T09:33:45.964Z,0.60
2023-04-02T09:36:34.403Z,0.60
2023-04-02T09:39:06.889Z,0.50
2023-04-02T09:41:37.133Z,0.60
2023-04-02T09:44:30.424Z,0.60
2023-04-02T09:47:03.846Z,0.60
2023-04-02T09:49:34.025Z,0.50
2023-04-02T09:52:22.451Z,0.60
2023-04-02T09:55:18.252Z,0.60
2023-04-02T09:57:47.779Z,0.60
2023-04-02T10:00:31.633Z,0.57
2023-04-02T10:03:04.157Z,0.57
2023-04-02T10:08:16.908Z,0.60
2023-04-02T10:10:47.293Z,0.70
2023-04-02T10:13:23.695Z,0.70
2023-04-02T10:15:56.802Z,0.60
2023-04-02T10:18:37.937Z,0.50
2023-04-02T10:21:07.095Z,0.50
2023-04-02T10:23:36.542Z,0.60
2023-04-02T10:26:20.265Z,0.60
2023-04-02T10:29:06.768Z,0.60
2023-04-02T10:31:41.513Z,0.53
2023-04-02T10:34:19.662Z,0.50
2023-04-02T10:36:52.036Z,0.50
2023-04-02T10:39:24.845Z,0.60
2023-04-02T10:41:58.162Z,0.70
2023-04-02T10:44:36.764Z,0.50
2023-04-02T10:47:14.347Z,0.63
2023-04-02T10:49:48.064Z,0.60
2023-04-02T10:52:21.346Z,0.60
2023-04-02T10:54:53.264Z,0.50
2023-04-02T10:57:29.561Z,0.50
2023-04-02T11:00:06.662Z,0.53
2023-04-02T11:02:40.519Z,0.60
2023-04-02T11:05:18.271Z,0.53
2023-04-02T11:08:01.902Z,0.60
2023-04-02T11:10:34.908Z,0.70
2023-04-02T11:13:08.533Z,0.70
2023-04-02T11:15:37.493Z,0.70
2023-04-02T11:18:06.136Z,0.60
2023-04-02T11:20:57.021Z,0.50
2023-04-02T11:23:29.701Z,0.50
2023-04-02T11:26:37.320Z,0.50
2023-04-02T11:29:16.695Z,0.60
2023-04-02T11:31:45.869Z,0.57
2023-04-02T11:34:15.952Z,0.60
2023-04-02T11:37:01.060Z,0.60
2023-04-02T11:40:06.670Z,0.50
2023-04-02T11:42:35.353Z,0.60
2023-04-02T11:45:52.602Z,0.60
2023-04-02T11:48:29.475Z,0.60
2023-04-02T11:50:58.287Z,0.50
2023-04-02T11:53:34.198Z,0.60
2023-04-02T11:56:17.869Z,0.60
2023-04-02T11:59:06.349Z,0.70
2023-04-02T12:02:06.289Z,0.60
2023-04-02T12:05:04.327Z,0.50
2023-04-02T12:08:22.562Z,0.60
2023-04-02T12:10:56.017Z,0.60
2023-04-02T12:13:50.932Z,0.70
2023-04-02T12:16:19.266Z,0.60
2023-04-02T12:18:53.615Z,0.60
2023-04-02T12:21:26.496Z,0.70
2023-04-02T12:23:58.225Z,0.80
2023-04-02T12:26:31.896Z,0.60
2023-04-02T12:29:26.396Z,0.70
2023-04-02T12:31:56.228Z,0.60
2023-04-02T12:34:27.130Z,0.63
2023-04-02T12:37:03.556Z,0.57
2023-04-02T12:39:32.288Z,0.73
2023-04-02T12:42:00.827Z,0.70
2023-04-02T12:44:30.561Z,0.50
2023-04-02T12:46:59.903Z,0.70
2023-04-02T12:49:37.613Z,0.60
2023-04-02T12:52:07.933Z,0.53
2023-04-02T12:54:39.371Z,0.53
2023-04-02T12:57:40.365Z,0.60
2023-04-02T13:00:44.445Z,0.60
2023-04-02T13:03:23.418Z,0.50
2023-04-02T13:05:56.229Z,0.50
2023-04-02T13:08:27.311Z,0.53
2023-04-02T13:10:57.664Z,0.53
2023-04-02T13:13:30.022Z,0.50
2023-04-02T13:16:03.560Z,0.60
2023-04-02T13:18:32.867Z,0.60
2023-04-02T13:21:03.971Z,0.60
2023-04-02T13:23:35.950Z,0.60
2023-04-02T13:26:14.871Z,0.60
2023-04-02T13:28:42.789Z,0.70
2023-04-02T13:31:16.592Z,0.60
2023-04-02T13:33:44.421Z,0.70
2023-04-02T13:36:15.772Z,0.60
2023-04-02T13:38:43.917Z,0.60
2023-04-02T13:41:21.365Z,0.60
2023-04-02T13:43:49.750Z,0.50
2023-04-02T13:46:22.006Z,0.80
2023-04-02T13:48:51.052Z,0.60
2023-04-02T13:51:22.272Z,0.50
2023-04-02T13:53:55.241Z,0.57
2023-04-02T13:56:24.447Z,0.60
2023-04-02T13:58:52.899Z,0.60
2023-04-02T14:01:22.224Z,0.60
2023-04-02T14:03:50.136Z,0.60
2023-04-02T14:06:29.882Z,0.60
2023-04-02T14:09:05.096Z,0.60
2023-04-02T14:11:44.433Z,0.57
2023-04-02T14:14:39.223Z,0.60
2023-04-02T14:17:18.401Z,0.60
2023-04-02T14:20:06.439Z,0.70
2023-04-02T14:22:52.334Z,0.60
2023-04-02T14:25:28.377Z,0.70
2023-04-02T14:28:03.592Z,0.70
2023-04-02T14:30:40.370Z,0.53
2023-04-02T14:33:19.029Z,0.70
2023-04-02T14:35:50.420Z,0.70
2023-04-02T14:38:23.927Z,0.60
2023-04-02T14:40:56.905Z,0.63
2023-04-02T14:43:27.618Z,0.60
2023-04-02T14:46:01.843Z,0.60
2023-04-02T14:48:41.641Z,0.60
2023-04-02T14:51:16.973Z,0.67
2023-04-02T14:53:53.431Z,0.60
2023-04-02T14:56:23.009Z,0.63
2023-04-02T14:58:55.607Z,0.60
2023-04-02T15:01:28.814Z,0.60
2023-04-02T15:04:02.328Z,0.60
2023-04-02T15:06:36.742Z,0.70
2023-04-02T15:09:11.665Z,0.67
2023-04-02T15:11:43.720Z,0.60
2023-04-02T15:14:18.514Z,0.60
2023-04-02T15:16:46.639Z,0.60
2023-04-02T15:19:17.028Z,0.67
2023-04-02T15:22:05.217Z,0.70
2023-04-02T15:24:47.925Z,0.73
2023-04-02T15:27:33.037Z,0.70
2023-04-02T15:30:07.612Z,0.60
2023-04-02T15:32:38.792Z,0.70
2023-04-02T15:35:24.286Z,0.70
2023-04-02T15:38:00.949Z,0.60
2023-04-02T15:40:49.757Z,0.90
2023-04-02T15:43:22.392Z,0.70
2023-04-02T15:45:59.027Z,0.80
2023-04-02T15:48:53.894Z,0.70
2023-04-02T15:51:33.882Z,0.80
2023-04-02T15:54:11.578Z,0.70
2023-04-02T15:56:53.696Z,0.70
2023-04-02T15:59:52.342Z,0.70
2023-04-02T16:02:39.943Z,0.77
2023-04-02T16:05:16.763Z,0.80
2023-04-02T16:08:09.210Z,0.67
2023-04-02T16:10:42.444Z,0.80
2023-04-02T16:13:18.895Z,0.80
2023-04-02T16:15:52.480Z,0.70
2023-04-02T16:18:31.112Z,0.80
2023-04-02T16:21:03.784Z,0.70
2023-04-02T16:23:36.125Z,0.73
2023-04-02T16:26:18.162Z,0.70
2023-04-02T16:28:57.243Z,0.70
2023-04-02T16:31:32.823Z,0.70
2023-04-02T16:34:06.310Z,0.70
2023-04-02T16:36:46.439Z,0.90
2023-04-02T16:39:23.644Z,0.70
2023-04-02T16:42:04.595Z,0.70
2023-04-02T16:44:44.339Z,1.00
2023-04-02T16:47:38.899Z,0.90
2023-04-02T16:50:19.316Z,1.00
2023-04-02T16:52:56.633Z,0.93
2023-04-02T16:55:36.315Z,0.80
2023-04-02T16:58:18.727Z,0.90
2023-04-02T17:00:52.246Z,0.83
2023-04-02T17:03:47.320Z,1.53
2023-04-02T17:06:26.218Z,1.00
2023-04-02T17:09:00.146Z,1.20
2023-04-02T17:11:37.652Z,0.87
2023-04-02T17:14:09.787Z,0.80
2023-04-02T17:16:44.129Z,1.07
2023-04-02T17:19:14.048Z,0.93
2023-04-02T17:21:45.297Z,1.30
2023-04-02T17:24:22.346Z,1.07
2023-04-02T17:26:54.502Z,1.10
2023-04-02T17:29:28.087Z,1.33
2023-04-02T17:32:01.643Z,1.50
2023-04-02T17:34:30.088Z,1.00
2023-04-02T17:37:07.753Z,0.97
2023-04-02T17:39:42.644Z,1.10
2023-04-02T17:42:16.475Z,0.90
2023-04-02T17:45:07.579Z,1.00
2023-04-02T17:47:44.900Z,1.20
2023-04-02T17:50:39.457Z,0.90
2023-04-02T17:53:15.567Z,1.03
2023-04-02T17:55:52.138Z,1.10
2023-04-02T17:58:40.851Z,1.43
2023-04-02T18:01:14.186Z,1.00
2023-04-02T18:03:52.443Z,1.07
2023-04-02T18:06:22.863Z,1.03
2023-04-02T18:09:08.631Z,1.20
2023-04-02T18:11:45.301Z,0.90
2023-04-02T18:14:33.794Z,1.10
2023-04-02T18:17:09.416Z,0.87
2023-04-02T18:19:44.217Z,0.97
2023-04-02T18:22:19.387Z,1.20
2023-04-02T18:25:03.816Z,1.07
2023-04-02T18:27:45.409Z,0.90
2023-04-02T18:30:20.624Z,1.00
2023-04-02T18:33:18.803Z,0.97
2023-04-02T18:35:59.606Z,1.10
2023-04-02T18:38:35.307Z,0.70
2023-04-02T18:41:11.831Z,1.70
2023-04-02T18:43:52.741Z,1.00
2023-04-02T18:46:31.591Z,1.20
2023-04-02T18:49:02.425Z,1.03
2023-04-02T18:51:37.913Z,1.40
2023-04-02T18:54:15.798Z,1.00
2023-04-02T18:56:43.867Z,1.13
2023-04-02T18:59:29.082Z,0.90
2023-04-02T19:01:59.457Z,1.10
2023-04-02T19:04:29.812Z,1.00
2023-04-02T19:07:05.777Z,0.90
2023-04-02T19:09:37.410Z,1.20
2023-04-02T19:12:15.576Z,1.10
2023-04-02T19:14:43.445Z,1.30
2023-04-02T19:17:16.790Z,0.90
2023-04-02T19:19:54.831Z,1.30
2023-04-02T19:22:33.501Z,1.10
2023-04-02T19:25:19.368Z,1.17
2023-04-02T19:28:04.409Z,1.00
2023-04-02T19:30:49.942Z,1.30
2023-04-02T19:33:41.592Z,0.97
2023-04-02T19:36:34.909Z,1.20
2023-04-02T19:39:22.132Z,1.13
2023-04-02T19:41:54.382Z,1.00
2023-04-02T19:44:22.968Z,0.87
2023-04-02T19:46:51.560Z,1.00
2023-04-02T19:49:24.320Z,1.30
2023-04-02T19:51:53.540Z,1.20
2023-04-02T19:54:23.021Z,1.30
2023-04-02T19:56:51.154Z,1.40
2023-04-02T19:59:19.285Z,1.57
2023-04-02T20:01:47.428Z,0.90
2023-04-02T20:04:15.397Z,1.27
2023-04-02T20:06:43.279Z,1.30
2023-04-02T20:09:11.168Z,1.20
2023-04-02T20:11:40.546Z,0.87
2023-04-02T20:14:08.387Z,1.10
2023-04-02T20:16:36.933Z,1.30
2023-04-02T20:19:04.885Z,1.00
2023-04-02T20:21:38.126Z,1.20
2023-04-02T20:24:06.983Z,1.20
2023-04-02T20:26:35.793Z,1.30
2023-04-02T20:29:05.778Z,1.20
2023-04-02T20:31:34.712Z,1.37
2023-04-02T20:34:05.308Z,1.10
2023-04-02T20:36:33.629Z,1.10
2023-04-02T20:39:01.509Z,1.10
2023-04-02T20:41:29.413Z,1.20
2023-04-02T20:43:57.361Z,1.30
2023-04-02T20:46:26.591Z,1.00
2023-04-02T20:48:54.599Z,1.03
2023-04-02T20:51:22.901Z,1.13
2023-04-02T20:53:50.806Z,1.03
2023-04-02T20:56:20.106Z,1.10
2023-04-02T20:58:47.980Z,1.30
2023-04-02T21:01:19.685Z,1.03
2023-04-02T21:03:49.556Z,1.40
2023-04-02T21:06:19.475Z,1.00
2023-04-02T21:08:47.853Z,1.10
2023-04-02T21:11:16.460Z,1.00
2023-04-02T21:13:45.887Z,0.90
2023-04-02T21:16:16.254Z,1.13
2023-04-02T21:18:44.809Z,1.50
2023-04-02T21:21:15.138Z,1.10
2023-04-02T21:23:44.034Z,1.07
2023-04-02T21:26:14.689Z,1.13
2023-04-02T21:28:43.204Z,1.20
2023-04-02T21:31:12.892Z,1.10
2023-04-02T21:33:42.252Z,1.10
2023-04-02T21:36:11.881Z,1.20
2023-04-02T21:38:44.503Z,1.00
2023-04-02T21:41:17.325Z,1.13
2023-04-02T21:43:48.295Z,1.10
2023-04-02T21:46:16.770Z,1.40
2023-04-02T21:48:44.949Z,1.37
2023-04-02T21:51:14.834Z,1.10
2023-04-02T21:53:44.422Z,1.23
2023-04-02T21:56:14.947Z,0.97
2023-04-02T21:58:43.358Z,1.20
2023-04-02T22:01:23.767Z,0.93
2023-04-02T22:03:54.542Z,1.13
2023-04-02T22:06:24.215Z,1.03
2023-04-02T22:08:56.938Z,1.40
2023-04-02T22:11:26.579Z,1.30
2023-04-02T22:13:54.502Z,1.40
2023-04-02T22:16:24.362Z,1.40
2023-04-02T22:18:53.750Z,1.20
2023-04-02T22:21:22.402Z,1.60
2023-04-02T22:23:50.830Z,0.90
2023-04-02T22:26:22.891Z,1.60
2023-04-02T22:28:52.426Z,1.40
2023-04-02T22:31:22.570Z,1.40
2023-04-02T22:33:51.615Z,1.33
2023-04-02T22:36:20.155Z,1.70
2023-04-02T22:38:48.050Z,1.40
2023-04-02T22:41:20.195Z,1.10
2023-04-02T22:43:48.133Z,1.60
2023-04-02T22:46:17.915Z,1.00
2023-04-02T22:48:47.051Z,1.03
2023-04-02T22:51:17.335Z,1.10
2023-04-02T22:53:45.565Z,1.40
2023-04-02T22:56:15.442Z,1.10
2023-04-02T22:58:45.513Z,1.00
2023-04-02T23:01:16.718Z,1.33
2023-04-02T23:03:45.226Z,0.93
2023-04-02T23:06:15.525Z,0.90
2023-04-02T23:08:43.992Z,1.10
2023-04-02T23:11:13.978Z,1.17
2023-04-02T23:13:42.271Z,1.10
2023-04-02T23:16:13.438Z,1.20
2023-04-02T23:18:42.199Z,1.27
2023-04-02T23:21:10.857Z,1.30
2023-04-02T23:23:39.076Z,1.10
2023-04-02T23:26:09.101Z,1.20
2023-04-02T23:28:37.921Z,1.17
2023-04-02T23:31:07.841Z,1.10
2023-04-02T23:33:37.134Z,1.10
2023-04-02T23:36:08.483Z,1.23
2023-04-02T23:38:36.726Z,1.30
2023-04-02T23:41:04.860Z,1.77
2023-04-02T23:43:32.957Z,1.20
2023-04-02T23:46:01.061Z,1.00
2023-04-02T23:48:28.905Z,1.27
2023-04-02T23:50:58.127Z,0.90
2023-04-02T23:53:26.116Z,1.13
2023-04-02T23:55:53.976Z,1.20
2023-04-02T23:58:21.829Z,1.20
